Weather observations for the past three days for
Pocono Mountains Regional Airport
Metric (Imperial)
Date Time (edt) Wind (kph) Vis. (km) Weather Sky Cond. Temperature (ºC) Relative Humidity Wind Chill (°C) Heat Index (°C) Pressure Precipitation (cm)
Air Dwpt 6 hour altimeter (cm) sea level (mb) 1 hr 3 hr 6 hr
Max. Min.
04 17:53 W 13 G 31 16.09 Fair CLR 23.3 13.3 54% 76.07 1012.9
04 16:53 NW 17 G 37 16.09 Fair CLR 23.9 14.4 55% 25 76.02 1012.1
04 15:53 NW 20 G 39 16.09 Fair CLR 23.9 13.9 54% 25 76.07 1013.0
04 14:53 NW 24 G 39 16.09 Fair CLR 23.9 14.4 55% 25 76.1 1013.2
04 13:53 NW 28 G 41 16.09 Partly Cloudy SCT037 23.9 15 24.4 20 58% 25 76.12 1013.5
04 12:53 W 33 G 44 16.09 A Few Clouds and Breezy FEW033 23.9 15.6 60% 25 76.12 1013.5
04 11:53 NW 24 G 43 16.09 Partly Cloudy FEW030 SCT035 23.3 16.1 64% 76.12 1013.7
04 10:53 NW 22 16.09 A Few Clouds FEW027 22.8 16.1 66% 76.15 1013.9
04 09:53 NW 24 G 39 16.09 Mostly Cloudy SCT017 BKN025 22.2 16.7 71% 76.12 1013.7
04 08:53 W 13 16.09 Partly Cloudy SCT012 SCT018 20.6 18.3 87% 76.12 1013.8
04 07:53 W 15 16.09 Overcast BKN011 BKN014 OVC048 20 18.9 20.6 19.4 93% 76.15 1013.9
04 06:53 NW 20 16.09 Mostly Cloudy FEW009 SCT013 BKN050 20 18.9 93% 76.1 1013.1
04 05:53 W 15 16.09 Mostly Cloudy SCT013 BKN046 20 19.4 96% 76.07 1013.0
04 04:53 W 17 16.09 Mostly Cloudy FEW011 SCT021 BKN036 20 19.4 96% 76.07 1012.6
04 03:53 W 11 14.48 Fair CLR 19.4 19.4 100% 76.05 1012.4
04 02:53 W 13 16.09 A Few Clouds FEW120 20 19.4 96% 76 1011.9
04 01:53 W 11 16.09 A Few Clouds FEW120 20 18.9 22.8 19.4 93% 76.02 1012.2 0.51
04 00:53 W 9 16.09 Thunderstorm in Vicinity FEW044 FEW080 SCT110 20 18.9 93% 76.1 1013.2 0.41
03 23:53 W 6 16.09 A Few Clouds FEW110 20 18.9 93% 76.12 1013.5
03 22:53 W 6 16.09 Fair CLR 20.6 20 96% 76.12 1013.8 0.1
03 21:53 W 7 16.09 Thunderstorm in Vicinity Light Rain FEW027 SCT041 SCT110 22.2 20.6 91% 76.17 1014.6 0.1
03 20:53 SW 6 16.09 A Few Clouds FEW034 22.2 20 87% 76.2 1014.7
03 19:53 SW 6 16.09 Fair CLR 22.8 20 27.2 22.8 84% 76.15 1014.0
03 18:53 SW 13 16.09 Fair CLR 24.4 20 77% 25 76.15 1014.2
03 17:53 W 9 16.09 Mostly Cloudy BKN035 25.6 19.4 69% 27 76.15 1014.0
03 16:53 W 15 16.09 Fair CLR 26.1 18.9 65% 27 76.12 1013.7
03 15:53 NW 11 16.09 Partly Cloudy SCT035 26.7 18.9 62% 28 76.15 1013.8
03 14:53 W 19 G 30 16.09 A Few Clouds FEW034 26.7 18.9 62% 28 76.17 1014.2
03 13:53 W 24 G 37 16.09 Fair CLR 26.1 17.8 26.1 18.3 60% 27 76.2 1014.7
03 12:53 W 30 G 44 16.09 Fair CLR 24.4 17.8 67% 25 76.23 1015.1
03 11:53 W 30 G 44 16.09 Fair CLR 23.3 17.8 71% 76.28 1016.0
03 10:53 W 28 G 43 16.09 Partly Cloudy FEW042 FEW065 SCT095 21.1 18.3 84% 76.33 1016.6
03 09:53 W 26 G 43 16.09 Fair CLR 20 18.3 90% 76.28 1016.2
03 08:53 W 19 16.09 Fair CLR 19.4 18.3 93% 76.25 1016.0
03 07:53 W 11 16.09 Overcast OVC004 18.3 17.8 18.3 16.7 97% 76.25 1015.8 0.33
03 06:53 SW 17 G 31 16.09 Overcast OVC005 17.8 17.8 100% 76.28 1016.1 0.03
03 05:53 W 17 16.09 Light Rain SCT005 BKN110 17.8 17.2 96% 76.3 1016.8
03 04:53 SW 11 16.09 Fair CLR 17.2 16.7 97% 76.28 1016.3 0.3
03 03:53 SW 13 16.09 Light Rain BKN110 17.2 16.7 97% 76.3 1016.6 0.2
03 02:53 W 11 12.87 Thunderstorm in Vicinity Rain SCT090 OVC110 17.2 16.7 97% 76.4 1018.0 0.1
03 01:53 S 6 16.09 Light Rain BKN075 BKN120 17.2 16.7 17.2 16.7 97% 76.38 1017.6 0.13 1.14
03 00:53 Calm 9.66 Light Rain Fog/Mist FEW090 OVC110 17.2 17.2 100% 76.45 1018.7 0.25
02 23:53 SE 7 8.05 Thunderstorm in Vicinity Rain Fog/Mist SCT039 BKN080 OVC100 16.7 16.7 100% 76.53 1019.8 0.76
02 22:53 SE 11 0.40 Fog VV001 17.2 17.2 100% 76.48 1018.9
02 21:53 SE 9 0.24 Fog VV001 17.2 17.2 100% 76.5 1019.4
02 20:53 SE 11 0.24 Fog VV001 17.2 17.2 100% 76.48 1019.1
02 19:53 SE 11 0.24 Fog VV001 17.2 17.2 18.3 17.2 100% 76.48 1019.0
02 18:53 E 13 0.40 Fog VV002 17.2 17.2 100% 76.48 1019.0
02 17:53 SE 15 0.24 Fog VV002 17.8 17.8 100% 76.5 1019.4
02 16:53 SE 13 0.24 Fog VV001 17.8 17.8 100% 76.5 1019.2
02 15:53 SE 9 0.24 Fog VV001 17.8 17.8 100% 76.53 1019.4
02 14:53 SE 13 0.24 Fog VV001 18.3 18.3 100% 76.53 1019.6
02 13:53 SE 13 0.40 Fog VV002 17.8 17.8 17.8 17.2 100% 76.61 1020.5
02 12:53 SE 15 0.40 Fog VV002 17.8 17.2 96% 76.61 1020.4
02 11:53 SE 13 0.80 Fog VV002 17.8 17.2 96% 76.61 1020.6
02 10:53 SE 11 0.40 Fog VV002 17.2 17.2 100% 76.63 1021.0
02 09:53 SE 9 0.40 Fog VV002 17.2 17.2 100% 76.63 1020.8
02 08:53 SE 15 0.40 Fog VV002 17.2 17.2 100% 76.58 1020.3
02 07:53 E 9 0.24 Fog VV002 17.2 17.2 20.6 17.2 100% 76.56 1019.8
02 06:53 Vrbl 9 0.40 Fog VV002 17.8 17.8 100% 76.53 1019.5
02 05:53 E 13 0.80 Fog VV002 18.3 17.8 97% 76.53 1019.2
02 04:53 SE 13 0.40 Fog VV001 18.9 18.9 100% 76.48 1018.5
02 03:53 SE 6 0.40 Fog VV001 20.6 20 96% 76.48 1018.1
02 02:53 S 9 0.40 Fog VV001 20.6 20.6 100% 76.45 1018.0
02 00:53 E 6 0.40 Fog VV002 20.6 20.6 100% 76.5 1018.5
01 23:53 E 9 0.40 Fog VV001 20.6 20.6 100% 76.45 1017.9
01 22:53 Calm 3.22 Fog/Mist SCT005 BKN010 18.3 18.3 100% 76.38 1017.3
01 21:53 Calm 14.48 Partly Cloudy FEW011 SCT042 19.4 18.9 97% 76.35 1016.7
01 20:53 SW 6 16.09 A Few Clouds FEW100 20 18.9 93% 76.38 1017.1
01 19:53 Calm 16.09 Thunderstorm in Vicinity CLR 20.6 19.4 27.8 20 93% 76.25 1015.5 0.2
01 18:53 N 9 16.09 A Few Clouds FEW065 20.6 18.9 90% 76.25 1015.6 0.03
Date Time (edt) Wind (kph) Vis. (km) Weather Sky Cond. Air Dwpt Max. Min. Relative Humidity Wind Chill (°C) Heat Index (°C) altimeter (cm) sea level (mb) 1 hr 3 hr 6 hr
6 hour
Temperature (ºC) Pressure Precipitation (cm)